Time;durP1;ratioP1;P1;durP2;ratioP2;P2;SDS_P1;SDS_P2;PMS_P1;PMS_P2;Temp;Humidity;BMP_temperature;BMP_pressure;BME280_temperature;BME280_humidity;BME280_pressure;Samples;Min_cycle;Max_cycle;Signal;HPM_P1;HPM_P2
2023/09/24 00:01:32;;;;;;;5.10;2.50;;;;;;;12.44;90.43;100858.78;109143;276;39556;-70
2023/09/24 00:04:21;;;;;;;3.30;2.40;;;;;;;12.41;90.93;100861.70;108987;276;39259;-70
2023/09/24 00:07:10;;;;;;;4.90;2.70;;;;;;;12.40;91.10;100863.66;109176;276;38227;-69
2023/09/24 00:10:02;;;;;;;;;;;;;;;12.40;91.27;100864.86;109267;276;38334;-70
2023/09/24 00:12:43;;;;;;;2.70;2.40;;;;;;;12.33;91.27;100871.23;109214;276;38183;-70
2023/09/24 00:15:28;;;;;;;3.20;2.60;;;;;;;12.30;91.35;100880.83;109248;276;38163;-71
2023/09/24 00:18:06;;;;;;;3.00;2.00;;;;;;;12.29;91.48;100886.63;109123;276;39308;-70
2023/09/24 00:20:41;;;;;;;;;;;;;;;12.29;91.46;100891.02;109152;276;38009;-69
2023/09/24 00:23:19;;;;;;;4.70;2.40;;;;;;;12.26;91.67;100892.69;109112;276;38258;-69
2023/09/24 00:25:55;;;;;;;3.40;2.40;;;;;;;12.29;91.83;100897.64;109123;276;38369;-69
2023/09/24 00:28:31;;;;;;;2.90;2.70;;;;;;;12.31;92.07;100890.20;109162;276;38009;-71
2023/09/24 00:31:21;;;;;;;3.60;2.50;;;;;;;12.35;92.03;100890.24;109148;276;38340;-69
2023/09/24 00:34:08;;;;;;;3.80;2.60;;;;;;;12.36;92.15;100889.52;108960;276;175220;-70
2023/09/24 00:36:42;;;;;;;3.90;2.80;;;;;;;12.36;92.31;100892.32;109104;276;38154;-72
2023/09/24 00:39:41;;;;;;;2.60;2.40;;;;;;;12.37;92.49;100889.14;109182;276;38297;-69
2023/09/24 00:42:28;;;;;;;3.90;3.00;;;;;;;12.36;92.48;100892.13;109127;276;38314;-71
2023/09/24 00:45:05;;;;;;;3.60;2.20;;;;;;;12.38;92.43;100888.56;109188;276;38321;-69
2023/09/24 00:47:43;;;;;;;2.90;2.10;;;;;;;12.37;92.29;100889.13;109148;276;39877;-69
2023/09/24 00:50:24;;;;;;;3.20;2.20;;;;;;;12.34;92.17;100895.20;109185;276;38442;-70
2023/09/24 00:52:58;;;;;;;3.70;2.40;;;;;;;12.34;92.47;100896.77;109203;276;38920;-70
2023/09/24 00:55:40;;;;;;;2.60;2.10;;;;;;;12.37;92.83;100897.88;109181;276;38506;-72
2023/09/24 00:58:15;;;;;;;2.90;1.90;;;;;;;12.42;92.76;100896.31;109056;276;172471;-72
2023/09/24 01:00:52;;;;;;;2.20;1.90;;;;;;;12.43;92.62;100894.17;109158;276;38940;-69
2023/09/24 01:03:28;;;;;;;3.60;2.30;;;;;;;12.46;92.54;100899.67;109143;276;39492;-70
2023/09/24 01:06:06;;;;;;;2.80;1.90;;;;;;;12.45;92.28;100900.91;109155;276;39460;-70
2023/09/24 01:08:42;;;;;;;3.50;2.40;;;;;;;12.43;92.35;100904.48;109126;276;38495;-70
2023/09/24 01:11:31;;;;;;;2.30;2.00;;;;;;;12.42;92.46;100902.42;109196;276;39839;-71
2023/09/24 01:14:09;;;;;;;3.00;2.30;;;;;;;12.43;92.62;100904.66;109144;276;38524;-69
2023/09/24 01:16:46;;;;;;;3.20;2.00;;;;;;;12.43;92.38;100910.42;109073;276;38280;-71
2023/09/24 01:19:21;;;;;;;4.70;2.00;;;;;;;12.43;92.41;100910.80;109108;276;39269;-70
2023/09/24 01:21:55;;;;;;;2.50;2.00;;;;;;;12.42;92.21;100910.31;109109;276;38165;-70
2023/09/24 01:24:32;;;;;;;3.60;1.80;;;;;;;12.41;92.43;100911.40;109163;276;38712;-70
2023/09/24 01:27:08;;;;;;;3.80;2.00;;;;;;;12.42;92.57;100909.59;109043;276;38799;-70
2023/09/24 01:29:44;;;;;;;3.10;2.20;;;;;;;12.42;92.68;100912.05;109170;276;39692;-70
2023/09/24 01:32:19;;;;;;;2.40;2.00;;;;;;;12.41;92.85;100909.11;109166;276;38673;-70
2023/09/24 01:35:06;;;;;;;3.60;2.10;;;;;;;12.41;92.75;100911.73;109070;276;38133;-72
2023/09/24 01:37:48;;;;;;;2.30;1.90;;;;;;;12.42;92.92;100911.71;109274;276;39539;-71
2023/09/24 01:40:32;;;;;;;3.70;2.10;;;;;;;12.42;92.73;100913.27;109221;276;38431;-71
2023/09/24 01:43:09;;;;;;;3.20;2.10;;;;;;;12.42;92.71;100914.52;109145;276;38320;-71
2023/09/24 01:45:47;;;;;;;4.00;2.40;;;;;;;12.42;92.77;100918.69;109130;276;38328;-71
2023/09/24 01:48:21;;;;;;;5.10;2.30;;;;;;;12.44;93.05;100915.45;108958;277;38333;-70
2023/09/24 01:50:55;;;;;;;2.50;2.00;;;;;;;12.46;92.91;100918.21;108933;277;38919;-71
2023/09/24 01:53:33;;;;;;;2.10;1.90;;;;;;;12.47;92.91;100918.33;108927;277;38358;-70
2023/09/24 01:56:12;;;;;;;3.20;2.30;;;;;;;12.47;92.87;100921.81;108940;277;38925;-70
2023/09/24 01:58:49;;;;;;;4.90;2.50;;;;;;;12.48;93.04;100928.29;108895;277;38299;-70
2023/09/24 02:01:23;;;;;;;3.00;2.70;;;;;;;12.50;93.27;100936.25;108972;277;38535;-69
2023/09/24 02:03:59;;;;;;;2.40;2.00;;;;;;;12.49;93.08;100938.55;108925;277;39546;-69
2023/09/24 02:06:36;;;;;;;6.00;2.50;;;;;;;12.48;92.94;100939.48;108937;277;38471;-69
2023/09/24 02:09:13;;;;;;;3.00;2.20;;;;;;;12.46;93.00;100935.19;108936;277;38386;-70
2023/09/24 02:11:52;;;;;;;2.70;2.10;;;;;;;12.46;93.04;100933.43;108958;277;38505;-70
2023/09/24 02:14:28;;;;;;;4.50;2.30;;;;;;;12.45;92.95;100929.95;108974;277;38276;-69
2023/09/24 02:17:05;;;;;;;2.80;2.00;;;;;;;12.45;92.90;100928.73;108935;277;38313;-70
2023/09/24 02:19:54;;;;;;;2.70;2.10;;;;;;;12.47;93.25;100932.52;108982;277;39966;-70
2023/09/24 02:22:52;;;;;;;4.30;2.20;;;;;;;12.48;93.12;100934.94;109052;277;38255;-70
2023/09/24 02:25:37;;;;;;;3.60;3.10;;;;;;;12.45;93.07;100932.42;108989;277;38826;-70
2023/09/24 02:28:12;;;;;;;3.00;2.20;;;;;;;12.44;93.39;100939.09;109015;277;39333;-70
2023/09/24 02:30:49;;;;;;;3.20;2.30;;;;;;;12.45;93.62;100946.39;109049;277;39869;-70
2023/09/24 02:33:23;;;;;;;2.40;2.20;;;;;;;12.46;93.60;100952.15;108994;277;38253;-71
2023/09/24 02:35:57;;;;;;;3.70;2.10;;;;;;;12.47;93.55;100960.89;108874;277;172538;-70
2023/09/24 02:38:31;;;;;;;3.20;2.30;;;;;;;12.48;93.69;100967.83;108943;277;38478;-70
2023/09/24 02:41:05;;;;;;;5.00;2.40;;;;;;;12.47;93.60;100972.41;108937;277;38253;-70
2023/09/24 02:43:49;;;;;;;3.70;2.20;;;;;;;12.49;93.75;100974.09;108933;277;38772;-69
2023/09/24 02:46:35;;;;;;;3.60;2.40;;;;;;;12.51;93.90;100981.71;108979;276;38157;-70
2023/09/24 02:49:12;;;;;;;2.80;2.40;;;;;;;12.52;93.79;100983.79;109113;276;38793;-71
2023/09/24 02:51:49;;;;;;;2.40;2.20;;;;;;;12.53;93.77;100977.78;109099;276;38224;-70
2023/09/24 02:54:23;;;;;;;2.90;2.10;;;;;;;12.53;93.69;100977.27;109116;276;38138;-70
2023/09/24 02:57:00;;;;;;;3.30;2.30;;;;;;;12.53;93.75;100978.50;108356;277;768627;-69
2023/09/24 02:59:36;;;;;;;2.50;2.30;;;;;;;12.54;93.57;100983.16;109016;276;175194;-70
2023/09/24 03:02:10;;;;;;;3.10;2.50;;;;;;;12.54;93.17;100994.73;109134;276;39415;-70
2023/09/24 03:04:45;;;;;;;3.90;3.00;;;;;;;12.49;93.17;100998.23;109195;276;38395;-70
2023/09/24 03:07:19;;;;;;;4.40;2.50;;;;;;;12.50;93.67;101004.83;109151;276;38778;-70
2023/09/24 03:09:53;;;;;;;2.40;2.20;;;;;;;12.52;93.74;101004.61;109184;276;38129;-70
2023/09/24 03:12:27;;;;;;;3.90;2.40;;;;;;;12.53;93.69;101003.02;109128;276;38597;-70
2023/09/24 03:15:17;;;;;;;3.70;2.10;;;;;;;12.52;93.57;101001.80;109166;276;38209;-69
2023/09/24 03:17:57;;;;;;;3.40;2.40;;;;;;;12.52;93.39;101005.30;109195;276;39367;-70
2023/09/24 03:20:37;;;;;;;2.20;2.00;;;;;;;12.50;93.57;101016.06;109101;276;38438;-70
2023/09/24 03:23:12;;;;;;;2.90;2.30;;;;;;;12.50;93.53;101018.48;108198;276;900554;-70
2023/09/24 03:25:47;;;;;;;3.70;2.30;;;;;;;12.51;93.61;101022.66;108526;268;901085;-70
2023/09/24 03:28:22;;;;;;;2.70;2.20;;;;;;;12.53;93.61;101026.98;108971;276;39646;-70
2023/09/24 03:30:58;;;;;;;3.90;3.00;;;;;;;12.53;93.67;101036.77;108995;277;38684;-69
2023/09/24 03:33:33;;;;;;;3.00;2.50;;;;;;;12.52;93.82;101043.12;108967;277;38805;-69
2023/09/24 03:36:11;;;;;;;5.20;2.30;;;;;;;12.51;93.70;101049.10;108904;277;175277;-70
2023/09/24 03:38:46;;;;;;;4.70;2.30;;;;;;;12.47;93.42;101056.22;108963;277;39016;-70
2023/09/24 03:41:21;;;;;;;3.60;2.60;;;;;;;12.48;93.62;101060.05;109016;277;40000;-71
2023/09/24 03:44:04;;;;;;;3.00;2.50;;;;;;;12.48;93.55;101068.28;109004;277;39872;-70
2023/09/24 03:46:39;;;;;;;2.70;2.20;;;;;;;12.49;93.64;101062.30;109010;277;38254;-69
2023/09/24 03:49:13;;;;;;;2.70;2.40;;;;;;;12.50;93.77;101057.33;108998;277;38401;-69
2023/09/24 03:51:48;;;;;;;3.40;2.30;;;;;;;12.51;93.71;101059.05;108999;277;39898;-71
2023/09/24 03:54:27;;;;;;;2.80;2.30;;;;;;;12.52;93.50;101063.60;109073;277;38229;-72
2023/09/24 03:57:05;;;;;;;4.70;2.30;;;;;;;12.53;93.54;101064.09;108995;277;38186;-71
2023/09/24 03:59:43;;;;;;;2.80;2.50;;;;;;;12.51;93.75;101066.24;109002;277;38233;-70
2023/09/24 04:02:18;;;;;;;2.60;2.30;;;;;;;12.52;93.54;101066.90;108951;277;38286;-70
2023/09/24 04:04:57;;;;;;;2.70;2.50;;;;;;;12.49;93.48;101069.13;108935;277;38757;-70
2023/09/24 04:07:37;;;;;;;3.50;2.70;;;;;;;12.48;93.39;101070.56;108908;277;38241;-71
2023/09/24 04:10:41;;;;;;;2.60;2.40;;;;;;;12.46;93.53;101072.89;108908;277;38404;-71
2023/09/24 04:13:35;;;;;;;3.70;2.40;;;;;;;12.41;93.49;101077.43;109000;277;38441;-69
2023/09/24 04:16:31;;;;;;;3.30;2.40;;;;;;;12.40;93.57;101081.48;108987;277;39751;-70
2023/09/24 04:19:27;;;;;;;3.20;2.40;;;;;;;12.40;93.59;101080.60;108309;277;900582;-72
2023/09/24 04:22:01;;;;;;;4.70;2.40;;;;;;;12.40;93.57;101085.52;109012;277;38264;-69
2023/09/24 04:24:36;;;;;;;2.50;2.20;;;;;;;12.40;93.65;101087.27;108970;277;38245;-70
2023/09/24 04:27:12;;;;;;;5.50;3.20;;;;;;;12.40;93.83;101090.41;109004;277;38233;-69
2023/09/24 04:29:48;;;;;;;5.00;2.40;;;;;;;12.43;93.80;101095.57;109000;277;38291;-70
2023/09/24 04:32:22;;;;;;;3.50;2.60;;;;;;;12.43;93.60;101096.45;108938;277;39621;-70
2023/09/24 04:34:56;;;;;;;3.10;2.20;;;;;;;12.41;93.47;101103.68;108998;277;38726;-70
2023/09/24 04:37:31;;;;;;;3.50;2.10;;;;;;;12.40;93.50;101105.46;108984;277;38553;-70
2023/09/24 04:40:14;;;;;;;2.90;2.40;;;;;;;12.41;93.62;101104.73;108982;277;38224;-69
2023/09/24 04:42:52;;;;;;;4.90;2.30;;;;;;;12.42;93.87;101101.38;108952;277;39468;-70
2023/09/24 04:45:27;;;;;;;4.50;2.50;;;;;;;12.41;93.53;101107.02;108970;277;38718;-70
2023/09/24 04:48:03;;;;;;;3.30;2.80;;;;;;;12.42;93.68;101108.39;108939;277;38291;-70
2023/09/24 04:50:39;;;;;;;2.80;2.50;;;;;;;12.43;93.57;101113.08;108983;277;38829;-71
2023/09/24 04:53:13;;;;;;;3.60;2.50;;;;;;;12.41;93.54;101119.07;108936;277;39284;-70
2023/09/24 04:55:47;;;;;;;3.30;2.40;;;;;;;12.42;93.70;101115.21;108916;277;38168;-70
2023/09/24 04:58:22;;;;;;;4.30;2.70;;;;;;;12.44;93.74;101114.25;108982;277;38763;-72
2023/09/24 05:01:14;;;;;;;3.50;2.60;;;;;;;12.42;93.43;101113.27;109040;277;38538;-70
2023/09/24 05:04:04;;;;;;;3.70;2.50;;;;;;;12.41;93.49;101114.55;108970;277;39336;-69
2023/09/24 05:06:40;;;;;;;3.30;2.50;;;;;;;12.38;93.31;101116.04;109014;277;38295;-70
2023/09/24 05:09:18;;;;;;;3.50;2.30;;;;;;;12.36;93.41;101115.55;109030;277;39619;-70
2023/09/24 05:11:58;;;;;;;4.70;2.70;;;;;;;12.38;93.63;101121.44;109007;277;38299;-70
2023/09/24 05:14:38;;;;;;;5.90;2.70;;;;;;;12.42;93.99;101131.14;109008;277;38284;-70
2023/09/24 05:17:12;;;;;;;4.00;2.40;;;;;;;12.44;93.84;101139.45;108996;277;38495;-72
2023/09/24 05:19:58;;;;;;;3.00;2.70;;;;;;;12.48;94.04;101149.31;108973;277;38588;-69
2023/09/24 05:22:51;;;;;;;3.60;2.80;;;;;;;12.50;94.17;101150.64;108985;277;38240;-71
2023/09/24 05:25:40;;;;;;;4.50;2.90;;;;;;;12.52;94.28;101154.60;108989;277;38432;-72
2023/09/24 05:28:18;;;;;;;3.10;2.80;;;;;;;12.56;94.42;101150.24;108978;277;38162;-69
2023/09/24 05:31:04;;;;;;;3.20;2.70;;;;;;;12.60;94.36;101157.30;108993;277;41424;-70
2023/09/24 05:33:38;;;;;;;3.60;3.10;;;;;;;12.62;94.16;101160.38;108942;277;38666;-71
2023/09/24 05:36:12;;;;;;;4.60;2.70;;;;;;;12.65;94.30;101164.98;108952;277;38136;-70
2023/09/24 05:38:48;;;;;;;3.10;2.80;;;;;;;12.70;94.41;101173.23;108966;277;39488;-70
2023/09/24 05:41:23;;;;;;;3.20;2.90;;;;;;;12.77;94.80;101183.14;108956;277;39355;-70
2023/09/24 05:44:04;;;;;;;3.60;3.00;;;;;;;12.82;94.72;101189.12;108913;277;38472;-69
2023/09/24 05:46:39;;;;;;;4.90;3.00;;;;;;;12.84;94.57;101195.52;108994;277;38216;-70
2023/09/24 05:49:18;;;;;;;3.90;3.00;;;;;;;12.85;94.52;101198.98;109009;277;38182;-70
2023/09/24 05:51:55;;;;;;;3.50;3.00;;;;;;;12.86;94.43;101195.62;108963;277;38593;-70
2023/09/24 05:54:32;;;;;;;3.80;2.90;;;;;;;12.89;94.28;101188.84;108958;277;172495;-70
2023/09/24 05:57:09;;;;;;;3.80;2.80;;;;;;;12.96;94.63;101185.30;109040;277;38466;-71
2023/09/24 05:59:45;;;;;;;4.40;2.70;;;;;;;13.05;94.99;101186.56;109011;277;39331;-71
2023/09/24 06:02:31;;;;;;;5.40;2.80;;;;;;;13.13;94.89;101186.77;109087;276;39681;-71
2023/09/24 06:05:13;;;;;;;5.40;3.00;;;;;;;13.22;94.90;101191.05;109029;277;39078;-70
2023/09/24 06:07:51;;;;;;;3.60;3.10;;;;;;;13.32;94.81;101190.17;109037;277;39364;-71
2023/09/24 06:10:30;;;;;;;3.50;3.00;;;;;;;13.43;95.31;101203.78;108992;277;38166;-71
2023/09/24 06:13:04;;;;;;;3.00;2.70;;;;;;;13.55;95.51;101216.16;108965;277;38156;-71
2023/09/24 06:15:48;;;;;;;3.70;3.30;;;;;;;13.65;95.35;101220.52;108972;277;38566;-70
2023/09/24 06:18:38;;;;;;;5.60;3.10;;;;;;;13.74;95.36;101227.54;108920;277;38442;-70
2023/09/24 06:21:18;;;;;;;3.50;2.70;;;;;;;13.84;95.20;101233.30;108998;277;39138;-70
2023/09/24 06:23:53;;;;;;;5.00;2.80;;;;;;;13.94;95.42;101233.98;108935;277;38489;-71
2023/09/24 06:26:28;;;;;;;6.40;3.80;;;;;;;14.05;95.19;101232.14;108940;277;39388;-70
2023/09/24 06:29:05;;;;;;;4.80;3.50;;;;;;;14.18;95.23;101230.77;108956;277;40168;-70
2023/09/24 06:31:46;;;;;;;;;;;;;;;14.33;95.25;101240.88;108965;277;39169;-70
2023/09/24 06:34:24;;;;;;;4.60;3.50;;;;;;;14.40;94.73;101247.61;109046;276;39335;-70
2023/09/24 06:36:58;;;;;;;4.00;3.00;;;;;;;14.53;94.59;101248.21;108984;277;38577;-71
2023/09/24 06:39:33;;;;;;;5.10;3.10;;;;;;;14.65;94.36;101249.45;109006;277;38330;-71
2023/09/24 06:42:07;;;;;;;3.50;3.20;;;;;;;14.77;94.08;101256.16;109033;277;38292;-71
2023/09/24 06:44:50;;;;;;;4.20;3.80;;;;;;;14.89;93.75;101262.85;109015;277;39574;-71
2023/09/24 06:47:49;;;;;;;4.80;3.40;;;;;;;15.02;93.56;101267.62;108989;277;38662;-70
2023/09/24 06:50:36;;;;;;;4.00;3.60;;;;;;;15.15;93.39;101268.29;108955;277;38627;-70
2023/09/24 06:53:20;;;;;;;3.80;3.30;;;;;;;15.36;93.49;101272.96;108937;277;39458;-72
2023/09/24 06:56:21;;;;;;;5.80;3.50;;;;;;;15.60;93.41;101273.17;109036;277;38325;-73
2023/09/24 06:59:09;;;;;;;4.50;3.10;;;;;;;15.82;91.79;101275.91;108949;277;39741;-70
2023/09/24 07:01:43;;;;;;;3.30;3.00;;;;;;;15.92;90.47;101279.48;108916;277;38565;-70
2023/09/24 07:04:21;;;;;;;3.20;2.90;;;;;;;15.99;89.68;101283.20;108962;277;39281;-70
2023/09/24 07:07:02;;;;;;;3.20;2.90;;;;;;;16.04;88.11;101289.15;108970;277;38721;-73
2023/09/24 07:09:42;;;;;;;4.20;2.90;;;;;;;16.04;87.47;101288.96;109050;277;39381;-72
2023/09/24 07:12:22;;;;;;;3.70;2.90;;;;;;;16.08;87.50;101289.50;108998;277;38459;-71
2023/09/24 07:15:05;;;;;;;3.50;2.90;;;;;;;16.11;86.97;101289.88;109037;277;38604;-70
2023/09/24 07:17:50;;;;;;;2.60;2.40;;;;;;;16.17;86.81;101294.17;108972;277;38639;-71
2023/09/24 07:20:31;;;;;;;3.40;2.80;;;;;;;16.29;87.02;101296.25;108998;277;39471;-70
2023/09/24 07:23:20;;;;;;;3.20;2.80;;;;;;;16.34;85.26;101293.73;109019;277;39601;-70
2023/09/24 07:26:00;;;;;;;3.30;2.50;;;;;;;16.34;84.71;101296.73;108937;277;38255;-73
2023/09/24 07:28:37;;;;;;;3.80;2.50;;;;;;;16.39;84.56;101296.85;108922;277;38187;-71
2023/09/24 07:31:22;;;;;;;3.10;2.50;;;;;;;16.44;83.68;101301.69;108971;277;39352;-71
2023/09/24 07:33:57;;;;;;;2.80;2.50;;;;;;;16.53;83.62;101296.16;108960;277;38350;-68
2023/09/24 07:36:32;;;;;;;4.60;2.50;;;;;;;16.65;83.59;101293.46;108907;277;38967;-69
2023/09/24 07:39:11;;;;;;;4.40;2.80;;;;;;;16.81;83.53;101296.61;108976;277;39225;-72
2023/09/24 07:41:46;;;;;;;3.00;2.70;;;;;;;16.97;82.98;101299.67;108916;277;39395;-72
2023/09/24 07:44:20;;;;;;;4.20;2.60;;;;;;;17.16;83.03;101301.20;108960;277;38535;-71
2023/09/24 07:46:54;;;;;;;3.00;2.50;;;;;;;17.26;82.17;101301.20;108940;277;39048;-71
2023/09/24 07:49:53;;;;;;;3.00;2.30;;;;;;;17.42;82.40;101300.75;108968;277;38807;-73
2023/09/24 07:52:42;;;;;;;3.80;2.30;;;;;;;17.50;80.34;101304.73;109022;277;38170;-71
2023/09/24 07:55:43;;;;;;;2.70;2.30;;;;;;;17.53;79.39;101310.54;108967;277;38832;-73
2023/09/24 07:58:31;;;;;;;3.60;2.60;;;;;;;17.65;79.29;101313.80;108952;277;38338;-74
2023/09/24 08:01:09;;;;;;;4.00;2.30;;;;;;;17.88;79.25;101315.46;108945;277;39390;-72
2023/09/24 08:03:45;;;;;;;4.20;2.60;;;;;;;18.17;78.92;101316.21;108956;270;38298;-71
2023/09/24 08:06:33;;;;;;;3.30;2.20;;;;;;;18.45;77.86;101317.14;109030;277;39582;-71
2023/09/24 08:09:31;;;;;;;2.20;1.80;;;;;;;18.65;78.19;101315.67;108991;277;38157;-72
2023/09/24 08:12:25;;;;;;;3.20;2.20;;;;;;;18.95;75.68;101317.51;109001;277;39372;-72
2023/09/24 08:15:07;;;;;;;3.00;1.80;;;;;;;19.06;74.14;101318.95;108957;277;38421;-73
2023/09/24 08:17:47;;;;;;;2.90;2.40;;;;;;;19.03;72.28;101325.50;108927;277;39791;-72
2023/09/24 08:20:26;;;;;;;2.80;2.10;;;;;;;18.95;72.07;101326.34;109032;277;38302;-72
2023/09/24 08:23:01;;;;;;;2.10;1.90;;;;;;;18.85;71.14;101327.42;108952;277;39187;-72
2023/09/24 08:25:36;;;;;;;2.50;2.00;;;;;;;18.74;71.49;101330.39;108984;277;38459;-71
2023/09/24 08:28:13;;;;;;;2.20;1.90;;;;;;;18.74;72.20;101332.79;108998;277;38611;-75
2023/09/24 08:30:49;;;;;;;2.00;1.80;;;;;;;18.70;71.14;101331.30;109015;277;38148;-72
2023/09/24 08:33:26;;;;;;;2.50;1.50;;;;;;;18.65;71.73;101330.67;108827;277;176610;-72
2023/09/24 08:36:04;;;;;;;3.10;2.30;;;;;;;18.61;71.30;101334.45;108972;277;38275;-72
2023/09/24 08:38:39;;;;;;;3.00;1.90;;;;;;;18.54;71.11;101337.66;108866;277;174822;-74
2023/09/24 08:41:20;;;;;;;3.80;1.90;;;;;;;18.51;71.91;101341.31;108961;277;38599;-73
2023/09/24 08:43:59;;;;;;;2.80;1.70;;;;;;;18.48;72.08;101343.82;109001;277;38227;-71
2023/09/24 08:46:50;;;;;;;2.60;1.50;;;;;;;18.47;71.86;101347.38;108992;277;38231;-71
2023/09/24 08:49:25;;;;;;;2.60;1.70;;;;;;;18.44;71.06;101353.20;109014;277;38220;-73
2023/09/24 08:52:01;;;;;;;4.00;1.60;;;;;;;18.49;72.21;101354.90;109003;277;38532;-72
2023/09/24 08:54:42;;;;;;;2.60;1.60;;;;;;;18.58;72.00;101349.81;108992;277;39748;-71
2023/09/24 08:57:19;;;;;;;2.20;1.60;;;;;;;18.71;71.75;101350.15;108972;277;38911;-73
2023/09/24 09:00:00;;;;;;;2.20;1.30;;;;;;;18.72;70.80;101357.01;108989;273;39998;-70
2023/09/24 09:02:35;;;;;;;1.70;1.20;;;;;;;18.70;70.12;101364.16;108970;277;38265;-72
2023/09/24 09:05:13;;;;;;;1.50;1.30;;;;;;;18.68;69.90;101364.81;109002;277;38294;-74
2023/09/24 09:08:01;;;;;;;2.70;1.20;;;;;;;18.70;69.81;101369.30;108901;277;38974;-72
2023/09/24 09:10:37;;;;;;;2.30;1.10;;;;;;;18.73;69.91;101361.67;108975;277;38322;-71
2023/09/24 09:13:15;;;;;;;2.70;1.50;;;;;;;18.79;69.72;101356.61;108936;277;39753;-71
2023/09/24 09:16:04;;;;;;;3.00;1.40;;;;;;;18.82;68.88;101354.98;108985;269;38331;-71
2023/09/24 09:18:40;;;;;;;1.30;1.20;;;;;;;18.83;68.67;101355.49;108927;277;39463;-71
2023/09/24 09:21:25;;;;;;;3.30;1.20;;;;;;;18.85;68.37;101358.02;108959;277;38416;-71
2023/09/24 09:24:01;;;;;;;3.10;1.20;;;;;;;18.88;68.57;101360.48;108968;277;38373;-70
2023/09/24 09:26:43;;;;;;;2.50;1.40;;;;;;;18.91;68.22;101358.06;108978;277;38195;-73
2023/09/24 09:29:34;;;;;;;3.00;1.30;;;;;;;18.96;68.25;101366.03;108965;277;38462;-71
2023/09/24 09:32:12;;;;;;;1.90;1.00;;;;;;;19.20;67.24;101367.50;109034;277;38447;-72
2023/09/24 09:35:11;;;;;;;2.20;0.90;;;;;;;19.34;65.34;101370.56;109044;277;38155;-72
2023/09/24 09:38:05;;;;;;;1.30;1.10;;;;;;;19.39;64.99;101370.83;109062;277;38823;-72
2023/09/24 09:40:43;;;;;;;1.90;0.80;;;;;;;19.71;65.97;101377.08;108860;277;174816;-72
2023/09/24 09:43:18;;;;;;;2.40;1.00;;;;;;;20.05;64.68;101379.95;108880;277;172116;-72
2023/09/24 09:45:57;;;;;;;1.50;0.80;;;;;;;20.13;62.73;101382.11;108969;277;38346;-72
2023/09/24 09:48:37;;;;;;;1.30;0.70;;;;;;;20.13;63.10;101385.19;108980;277;39932;-72
2023/09/24 09:51:14;;;;;;;2.60;0.90;;;;;;;20.12;61.92;101390.67;109005;277;38243;-72
2023/09/24 09:53:51;;;;;;;2.30;1.10;;;;;;;20.00;62.63;101393.70;108942;277;38499;-75
2023/09/24 09:56:29;;;;;;;2.30;0.90;;;;;;;19.95;62.13;101399.14;108993;277;39325;-74
2023/09/24 09:59:06;;;;;;;1.50;0.90;;;;;;;19.80;62.00;101395.10;108962;277;39095;-71
2023/09/24 10:01:40;;;;;;;1.50;0.90;;;;;;;19.73;62.28;101400.34;108970;277;38296;-71
2023/09/24 10:04:20;;;;;;;1.20;0.80;;;;;;;19.67;62.14;101408.66;108903;277;38498;-70
2023/09/24 10:07:01;;;;;;;3.60;1.10;;;;;;;19.62;62.47;101404.00;108999;273;38303;-72
2023/09/24 10:09:41;;;;;;;2.50;1.00;;;;;;;19.58;62.50;101403.48;109013;277;39457;-72
2023/09/24 10:12:25;;;;;;;1.90;1.00;;;;;;;19.54;62.41;101404.38;109004;277;38643;-73
2023/09/24 10:15:04;;;;;;;3.90;2.20;;;;;;;19.54;62.58;101402.96;109035;277;38152;-71
2023/09/24 10:17:42;;;;;;;3.40;2.40;;;;;;;19.59;63.90;101398.27;109049;277;38221;-70
2023/09/24 10:20:25;;;;;;;6.00;5.20;;;;;;;19.72;64.21;101402.52;108991;277;38188;-72
2023/09/24 10:23:37;;;;;;;13.60;10.70;;;;;;;19.83;63.43;101405.02;109019;270;38274;-71
2023/09/24 10:26:48;;;;;;;20.70;15.60;;;;;;;19.96;62.63;101407.57;108986;277;38151;-73
2023/09/24 10:30:07;;;;;;;4.70;3.40;;;;;;;20.03;62.70;101406.66;108980;277;39243;-70
2023/09/24 10:32:52;;;;;;;6.10;2.40;;;;;;;20.08;62.01;101415.55;108931;277;39507;-70
2023/09/24 10:35:27;;;;;;;2.70;1.10;;;;;;;20.14;60.97;101427.41;108986;277;38350;-70
2023/09/24 10:38:11;;;;;;;1.80;1.30;;;;;;;20.13;60.61;101429.24;108995;277;38192;-70
2023/09/24 10:41:08;;;;;;;1.70;0.90;;;;;;;20.17;59.93;101432.56;108992;277;38183;-69
2023/09/24 10:43:44;;;;;;;2.60;1.30;;;;;;;20.12;60.13;101433.02;108945;277;38336;-70
2023/09/24 10:46:33;;;;;;;1.50;0.80;;;;;;;20.10;59.97;101429.26;108987;277;38155;-71
2023/09/24 10:49:12;;;;;;;1.20;0.90;;;;;;;20.13;60.95;101428.73;108975;273;38590;-72
2023/09/24 10:51:47;;;;;;;3.90;1.20;;;;;;;20.17;60.51;101428.67;108909;277;38793;-73
2023/09/24 10:54:25;;;;;;;1.80;1.10;;;;;;;20.10;60.40;101429.77;108943;277;38251;-73
2023/09/24 10:57:01;;;;;;;1.40;0.80;;;;;;;20.01;58.10;101426.80;108448;277;649309;-71
2023/09/24 10:59:39;;;;;;;1.10;0.70;;;;;;;19.92;58.41;101422.40;108989;277;38222;-74
2023/09/24 11:02:21;;;;;;;2.40;0.90;;;;;;;19.86;57.69;101418.16;108976;277;39360;-74
2023/09/24 11:04:56;;;;;;;1.60;0.80;;;;;;;19.76;57.28;101411.51;109010;277;38707;-74
2023/09/24 11:07:31;;;;;;;6.60;5.90;;;;;;;19.71;58.20;101418.53;109002;277;39311;-72
2023/09/24 11:10:19;;;;;;;9.60;8.50;;;;;;;19.66;57.79;101422.39;109003;277;38770;-73
2023/09/24 11:13:05;;;;;;;5.00;4.50;;;;;;;19.59;58.29;101422.58;109032;277;38751;-71
2023/09/24 11:15:42;;;;;;;3.40;2.70;;;;;;;19.48;57.78;101423.01;109027;277;39609;-72
2023/09/24 11:18:19;;;;;;;3.30;2.00;;;;;;;19.54;59.69;101419.10;108828;277;174886;-71
2023/09/24 11:20:55;;;;;;;1.70;1.00;;;;;;;19.67;59.83;101409.73;108975;277;38343;-72
2023/09/24 11:23:39;;;;;;;2.10;1.00;;;;;;;19.81;59.40;101408.48;108938;277;39768;-71
2023/09/24 11:26:13;;;;;;;2.20;1.40;;;;;;;19.91;58.55;101414.50;108941;277;38159;-72
2023/09/24 11:28:47;;;;;;;3.10;2.80;;;;;;;19.94;58.15;101413.41;108972;277;38595;-72
2023/09/24 11:31:35;;;;;;;4.80;4.10;;;;;;;19.95;57.73;101408.55;109003;277;38153;-71
2023/09/24 11:34:21;;;;;;;4.20;3.50;;;;;;;20.00;57.65;101413.73;109014;277;38167;-72
2023/09/24 11:36:59;;;;;;;4.70;3.00;;;;;;;20.01;57.83;101410.80;108950;277;38677;-72
2023/09/24 11:39:50;;;;;;;2.30;2.10;;;;;;;20.06;58.34;101411.04;108935;277;187955;-72
2023/09/24 11:42:30;;;;;;;2.10;1.70;;;;;;;20.15;58.17;101409.66;108978;277;38369;-72
2023/09/24 11:45:16;;;;;;;3.20;2.20;;;;;;;20.23;58.12;101412.35;109039;277;38236;-71
2023/09/24 11:47:53;;;;;;;2.40;1.50;;;;;;;20.29;56.95;101414.08;109021;277;38351;-74
2023/09/24 11:50:35;;;;;;;;;;;;;;;20.27;56.71;101408.90;108997;277;38485;-73
2023/09/24 11:53:13;;;;;;;3.30;2.10;;;;;;;20.20;57.12;101404.76;108994;277;39379;-71
2023/09/24 11:55:56;;;;;;;1.90;1.20;;;;;;;20.19;57.62;101401.26;108991;277;40261;-73
2023/09/24 11:58:34;;;;;;;2.10;1.20;;;;;;;20.15;57.49;101406.09;108862;276;174455;-72
2023/09/24 12:01:16;;;;;;;2.90;1.50;;;;;;;20.09;56.43;101412.51;109008;277;38166;-71
2023/09/24 12:03:53;;;;;;;2.00;1.30;;;;;;;20.03;56.84;101414.09;108957;277;38321;-71
2023/09/24 12:06:38;;;;;;;1.70;1.00;;;;;;;20.01;57.27;101417.75;108979;277;38128;-72
2023/09/24 12:09:14;;;;;;;2.30;1.00;;;;;;;20.04;57.77;101414.89;109017;277;38473;-73
2023/09/24 12:11:50;;;;;;;1.30;1.00;;;;;;;20.09;57.50;101417.77;108920;277;39193;-71
2023/09/24 12:14:33;;;;;;;2.20;1.00;;;;;;;20.14;57.49;101415.38;108997;277;39405;-72
2023/09/24 12:17:19;;;;;;;1.70;1.00;;;;;;;20.15;56.63;101420.61;109046;277;39624;-72
2023/09/24 12:19:59;;;;;;;1.40;0.80;;;;;;;20.08;55.68;101419.09;108926;277;39422;-70
2023/09/24 12:22:36;;;;;;;1.50;0.70;;;;;;;20.05;55.82;101419.46;108885;277;38801;-69
2023/09/24 12:25:14;;;;;;;1.90;0.80;;;;;;;20.08;56.12;101419.46;108990;277;40392;-71
2023/09/24 12:28:05;;;;;;;1.80;0.70;;;;;;;20.07;55.69;101419.46;108974;277;39628;-72